Campo di Volo Oasi

IT-0341 · Lombardy, 意大利

罗盘
风向 的 风向 020° Campo di Volo Oasi 18/36
风: 6 kt, 2 beaufort

6 kt

2 kt
改变
0 ft 1.000 2.000 3.000 4.000 5.000
CAVOK
METAR LIMC 180150Z 02006KT CAVOK 11/09 Q1013 NOSIG

METAR Campo di Volo Oasi - IT-0341

Campo di Volo Oasi是,意大利中的小机场。 该机场位于纬度45,69617和经度8,82711。 该机场有一条跑道: 18/36. 这个机场没有ICAO代码,我们使用IT-0341作为参考。 机场在Milano FIR中。

该航空气象观测是针对Malpensa International Airport在2024年5月18日 03:50, 当地时间进行的。

机场观察

风向为020°,速度为6 kt。

天气为CAVOK。这意味着在5.000 ft或MSA(最低安全高度)以下(以较高者为准)以下没有云。这也意味着没有观测到积雨云或高耸的积云,可见度为10 km 或者更多或更高。此外,不会有雾,降雨或其他重要天气。

温度和风寒是11 °C。 露点为9 °C,相对湿度为88%。 海平面上的气压为1013 hPa (QNH)。

白天

今天,太阳从05:49升起,在20:52降落。 这适用于Campo di Volo Oasi,世界夏令时可能有所不同。 当地时间与世界标准时间之间的时差为+2 小时。 夏令时目前正在进行中。

公司介绍

我们没有关于这个机场的公司信息。

体会

到Vliegles.nl去找飞行课程,跳伞和其他飞行体验。 浏览页面,了解Campo di Volo Oasi附近所有可用的活动。 你也可以使用搜索功能来寻找你所在地附近的特定飞行课程、跳伞或其他飞行体验。

跑道

Id 标题 侧风 逆风 侧风 %
18/36 180°-360° 2 kt 6 kt 34 %

逆风成分最大的方向会被突出显示,并用于横风计算。 这并不一定意味着这个方向在使用。

温度 & 天气

温度 11 °C
露点 9 °C
相对湿度 88%
Kp-index 3 (0-9)

白天

日出
05:50 (1:43)
中午
13:21
日落
20:53

小工具

你想在你的网站上有一个关于Campo di Volo Oasi的当前航空天气(METAR)的小部件吗?

显示HTML代码
报告变更